Dart — OUOV2 — position and weather

sailwx.info

Track history (hours):
 
Tides and Currents Weather Stations Pressure Air Temp Water Temp Dewpoint Dewpoint Depression Visibility Wind Speed Wind Dir Waves Ship Positions

Dart

Last reported at 2017-Mar-23 13:32 UTC. Time now 2017-Mar-23 14:17 UTC.
Position N 63°03' E 007°40'.

Length 67 m; draft 4.2 m.

Type: Tanker. MMSI: 219416000.

Date/timePositionNaut miles runAvg speedWind from/ knotsBaromVisibWave heightAir tempDewpointWater temp
2017-Mar-23 13:32N 63°03' E 007°40'0 0.0
2017-Mar-23 12:32N 63°03' E 007°40'0 0.0
2017-Mar-23 11:32N 63°03' E 007°40'4 3.9
2017-Mar-23 10:34N 63°07' E 007°41'8 7.9
2017-Mar-23 09:33N 63°13' E 007°53'9 8.7
2017-Mar-23 08:33N 63°17' E 008°10'9 9.0
2017-Mar-23 07:33N 63°23' E 008°26'9 8.9
2017-Mar-23 06:33N 63°26' E 008°44'8 8.4
2017-Mar-23 05:33N 63°29' E 009°02'8 8.4
2017-Mar-23 04:33N 63°33' E 009°18'9 8.6
2017-Mar-23 03:33N 63°40' E 009°29'9 9.2
2017-Mar-23 02:33N 63°49' E 009°35'9 8.9
2017-Mar-23 01:33N 63°56' E 009°47'8 7.6
2017-Mar-23 00:33N 64°04' E 009°51'7 6.7
2017-Mar-22 23:32N 64°08' E 010°04'8 7.7
2017-Mar-22 22:33N 64°14' E 010°14'7 7.1
2017-Mar-22 21:33N 64°19' E 010°25'8 8.0
2017-Mar-22 20:33N 64°27' E 010°27'7 6.9
2017-Mar-22 19:33N 64°34' E 010°33'8 7.8
2017-Mar-22 18:33N 64°39' E 010°45'9 9.0
2017-Mar-22 17:34N 64°45' E 011°01'10 9.7
2017-Mar-22 16:34N 64°52' E 011°17'9 9.4
2017-Mar-22 15:33N 64°58' E 011°34'9 9.4
2017-Mar-22 14:34N 65°06' E 011°47'10 9.5
2017-Mar-22 13:33N 65°15' E 011°55'8 8.3
2017-Mar-22 12:33N 65°23' E 011°59'9 8.6
2017-Mar-22 11:33N 65°31' E 012°02'9 9.4
2017-Mar-22 10:32N 65°39' E 012°13'9 9.5
2017-Mar-22 09:33N 65°48' E 012°20'9 8.7
2017-Mar-22 08:33N 65°57' E 012°25'9 8.9
2017-Mar-22 07:33N 66°04' E 012°39'9 9.2
2017-Mar-22 06:33N 66°09' E 012°57'1110.8
2017-Mar-22 05:33N 66°14' E 013°20'10 9.8
2017-Mar-22 04:33N 66°15' E 013°45'8 8.2
2017-Mar-22 03:33N 66°18' E 014°03'2 2.4
2017-Mar-22 02:34N 66°20' E 014°08'0 0.0
2017-Mar-22 01:34N 66°20' E 014°08'0 0.0
2017-Mar-22 00:34N 66°20' E 014°08'0 0.0
2017-Mar-21 23:31N 66°20' E 014°08'0 0.0
2017-Mar-21 22:34N 66°20' E 014°08'0 0.0
2017-Mar-21 21:34N 66°20' E 014°08'0 0.0
2017-Mar-21 20:34N 66°20' E 014°08'0 0.0
2017-Mar-21 19:34N 66°20' E 014°08'0 0.0
2017-Mar-21 18:33N 66°20' E 014°08'0 0.0
2017-Mar-21 17:34N 66°20' E 014°08'0 0.0
2017-Mar-21 16:34N 66°20' E 014°08'0 0.0
2017-Mar-21 15:34N 66°20' E 014°08'0 0.0
2017-Mar-21 14:33N 66°20' E 014°08'0 0.0
2017-Mar-21 13:33N 66°20' E 014°08'0 0.0
2017-Mar-21 12:34N 66°20' E 014°08'0 0.0
2017-Mar-21 11:34N 66°20' E 014°08'0 0.0
2017-Mar-21 10:33N 66°20' E 014°08'0 0.0
2017-Mar-21 09:33N 66°20' E 014°08'0 0.0
2017-Mar-21 08:34N 66°20' E 014°08'0 0.0
2017-Mar-21 07:33N 66°20' E 014°08'0 0.0
2017-Mar-21 06:34N 66°20' E 014°08'0 0.0
2017-Mar-21 05:34N 66°20' E 014°08'0 0.0
2017-Mar-21 04:34N 66°20' E 014°08'0 0.0
2017-Mar-21 03:33N 66°20' E 014°08'0 0.0
2017-Mar-21 02:34N 66°20' E 014°08'0 0.0
2017-Mar-21 01:34N 66°20' E 014°08'0 0.0
2017-Mar-21 00:33N 66°20' E 014°08'0 0.0
2017-Mar-20 23:34N 66°20' E 014°08'0 0.0
2017-Mar-20 22:34N 66°20' E 014°08'0 0.0
2017-Mar-20 21:34N 66°20' E 014°08'0 0.0
2017-Mar-20 20:33N 66°20' E 014°08'0 0.0
2017-Mar-20 19:33N 66°20' E 014°08'8 7.9
2017-Mar-20 18:33N 66°15' E 013°51'10 9.5
2017-Mar-20 17:33N 66°14' E 013°28'9 8.6
2017-Mar-20 16:33N 66°11' E 013°08'10 9.7
2017-Mar-20 15:33N 66°07' E 012°46'1110.9
2017-Mar-20 14:33N 65°59' E 012°28'1110.7
2017-Mar-20 13:33N 65°49' E 012°21'1110.8
2017-Mar-20 12:33N 65°38' E 012°13'1010.3
2017-Mar-20 11:33N 65°30' E 011°60'9 8.6
2017-Mar-20 10:33N 65°21' E 012°03'1110.7
2017-Mar-20 09:33N 65°11' E 011°52'1010.5
2017-Mar-20 08:33N 65°02' E 011°42'10 9.8
2017-Mar-20 07:33N 64°55' E 011°25'10 9.7
2017-Mar-20 06:33N 64°49' E 011°08'1010.1
2017-Mar-20 05:33N 64°42' E 010°51'10 9.9
2017-Mar-20 04:33N 64°33' E 010°38'1010.1
2017-Mar-20 03:33N 64°25' E 010°26'9 9.0
2017-Mar-20 02:33N 64°16' E 010°20'1010.0
2017-Mar-20 01:33N 64°08' E 010°06'1010.3
2017-Mar-20 00:33N 64°02' E 009°47'10 9.8
2017-Mar-19 23:33N 63°52' E 009°42'1010.1
2017-Mar-19 22:33N 63°43' E 009°32'1010.0
2017-Mar-19 21:33N 63°34' E 009°22'1110.6
2017-Mar-19 20:33N 63°29' E 009°01'1010.1
2017-Mar-19 19:33N 63°25' E 008°40'1010.3
2017-Mar-19 18:33N 63°20' E 008°20'1010.5
2017-Mar-19 17:33N 63°14' E 008°01'1010.3
2017-Mar-19 16:33N 63°08' E 007°43'3 3.0
2017-Mar-19 15:32N 63°06' E 007°47'0 0.0
2017-Mar-19 14:32N 63°06' E 007°47'0 0.0
2017-Mar-19 13:32N 63°06' E 007°47'0 0.0
2017-Mar-19 12:32N 63°06' E 007°47'0 0.0
2017-Mar-19 11:32N 63°06' E 007°47'1 0.9
2017-Mar-19 10:33N 63°06' E 007°45'3 3.4
2017-Mar-19 09:33N 63°03' E 007°40'0 0.0
2017-Mar-19 08:33N 63°03' E 007°40'0 0.0
2017-Mar-19 07:33N 63°03' E 007°40'0 0.0
2017-Mar-19 06:33N 63°03' E 007°40'3 3.0
2017-Mar-19 05:33N 63°06' E 007°41'7 7.3
2017-Mar-19 04:34N 63°04' E 007°25'8 8.5
2017-Mar-19 03:34N 63°01' E 007°08'9 8.5
2017-Mar-19 02:33N 62°58' E 006°51'9 8.9
2017-Mar-19 01:34N 62°50' E 006°40'9 9.0
2017-Mar-19 00:33N 62°42' E 006°29'9 9.4
2017-Mar-18 23:33N 62°36' E 006°15'9 9.2
2017-Mar-18 22:34N 62°28' E 006°05'8 7.9
2017-Mar-18 21:33N 62°20' E 006°07'10 9.5
2017-Mar-18 20:33N 62°13' E 005°53'9 9.2
2017-Mar-18 19:33N 62°11' E 005°34'8 7.5
2017-Mar-18 18:33N 62°11' E 005°18'8 7.6
2017-Mar-18 17:33N 62°11' E 005°02'10 9.5
2017-Mar-18 16:33N 62°02' E 005°08'9 9.3
2017-Mar-18 15:33N 61°53' E 005°10'6 5.9
2017-Mar-18 14:32N 61°47' E 005°06'9 9.0
2017-Mar-18 13:33N 61°39' E 004°59'4 3.4
2017-Mar-18 12:30N 61°37' E 005°04'0 0.0
2017-Mar-18 11:24N 61°37' E 005°04'0 0.0
2017-Mar-18 10:30N 61°37' E 005°04'1 1.0
2017-Mar-18 09:34N 61°37' E 005°03'8 8.3
2017-Mar-18 08:33N 61°29' E 004°59'1010.1
2017-Mar-18 07:33N 61°19' E 005°04'7 6.9
2017-Mar-18 06:33N 61°13' E 004°59'9 9.1
2017-Mar-18 05:33N 61°04' E 004°59'10 9.7
2017-Mar-18 04:33N 60°56' E 004°45'9 9.3
2017-Mar-18 03:33N 60°47' E 004°46'1010.4
2017-Mar-18 02:33N 60°37' E 004°53'1110.5
2017-Mar-18 01:33N 60°27' E 005°01'1010.1
2017-Mar-18 00:33N 60°19' E 005°12'10 9.8
2017-Mar-17 23:33N 60°10' E 005°16'1110.9
2017-Mar-17 22:33N 59°59' E 005°22'1110.7
2017-Mar-17 21:33N 59°50' E 005°33'1010.5
2017-Mar-17 20:33N 59°41' E 005°24'1110.5
2017-Mar-17 19:33N 59°32' E 005°12'8 8.0
2017-Mar-17 18:31N 59°24' E 005°16'0 0.0
2017-Mar-17 17:31N 59°24' E 005°16'1 0.8
2017-Mar-17 16:33N 59°23' E 005°17'5 4.7
2017-Mar-17 15:33N 59°19' E 005°20'2 1.7
2017-Mar-17 14:32N 59°17' E 005°19'0 0.0
2017-Mar-17 13:32N 59°17' E 005°19'0 0.0
2017-Mar-17 12:32N 59°17' E 005°19'0 0.0
2017-Mar-17 11:32N 59°17' E 005°19'0 0.0
2017-Mar-17 10:32N 59°17' E 005°19'2 1.7
2017-Mar-17 09:33N 59°15' E 005°20'8 7.7
2017-Mar-17 08:33N 59°10' E 005°30'7 7.4
2017-Mar-17 07:33N 59°02' E 005°33'7 6.6
2017-Mar-17 06:32N 58°56' E 005°36'0 0.0
2017-Mar-17 05:32N 58°56' E 005°36'0 0.0
2017-Mar-17 04:32N 58°56' E 005°36'0 0.0
2017-Mar-17 03:33N 58°56' E 005°36'2 1.6
2017-Mar-17 02:33N 58°56' E 005°33'6 6.3
2017-Mar-17 01:33N 59°03' E 005°36'3 3.4
2017-Mar-17 00:33N 58°60' E 005°40'0 0.0
2017-Mar-16 23:33N 58°60' E 005°40'0 0.0
2017-Mar-16 22:33N 58°60' E 005°40'0 0.0
2017-Mar-16 21:33N 58°60' E 005°40'0 0.0
2017-Mar-16 20:33N 58°60' E 005°40'0 0.0
2017-Mar-16 19:33N 58°60' E 005°40'0 0.0
2017-Mar-16 18:33N 58°60' E 005°40'0 0.0
2017-Mar-16 17:32N 58°60' E 005°40'0 0.0
2017-Mar-16 16:32N 58°60' E 005°40'0 0.0
2017-Mar-16 15:32N 58°60' E 005°40'0 0.0
2017-Mar-16 14:32N 58°60' E 005°40'0 0.0
2017-Mar-16 13:32N 58°60' E 005°40'0 0.0
2017-Mar-16 12:32N 58°60' E 005°40'0 0.0
2017-Mar-16 11:32N 58°60' E 005°40'0 0.0
2017-Mar-16 10:32N 58°60' E 005°40'0 0.0
2017-Mar-16 09:32N 58°60' E 005°40'0 0.0
2017-Mar-16 08:32N 58°60' E 005°40'1 1.2
2017-Mar-16 07:33N 59°01' E 005°39'6 5.8
2017-Mar-16 06:33N 58°56' E 005°34'1 0.9
2017-Mar-16 05:31N 58°55' E 005°36'0 0.0
2017-Mar-16 04:31N 58°55' E 005°36'0 0.0
2017-Mar-16 03:28N 58°55' E 005°36'0 0.0
2017-Mar-16 02:31N 58°55' E 005°36'0 0.0
2017-Mar-16 01:31N 58°55' E 005°36'0 0.0
2017-Mar-16 00:31N 58°55' E 005°36'0 0.0
2017-Mar-15 23:31N 58°55' E 005°36'0 0.0
2017-Mar-15 22:31N 58°55' E 005°36'0 0.0
2017-Mar-15 21:31N 58°55' E 005°36'0 0.0
2017-Mar-15 20:31N 58°55' E 005°36'0 0.2
2017-Mar-15 19:34N 58°56' E 005°36'9 8.8
2017-Mar-15 18:33N 59°04' E 005°32'9 8.9
2017-Mar-15 17:33N 59°11' E 005°20'8 7.8
2017-Mar-15 16:33N 59°19' E 005°19'0 0.0
2017-Mar-15 15:33N 59°19' E 005°19'0 0.0
2017-Mar-15 14:33N 59°19' E 005°19'0 0.0
2017-Mar-15 13:33N 59°19' E 005°19'0 0.0
2017-Mar-15 12:33N 59°19' E 005°19'0 0.0
2017-Mar-15 11:33N 59°19' E 005°19'7 7.5
2017-Mar-15 10:33N 59°11' E 005°21'9 8.9
2017-Mar-15 09:33N 59°05' E 005°33'9 8.6
2017-Mar-15 08:33N 59°01' E 005°48'8 7.7
2017-Mar-15 07:33N 58°53' E 005°45'0 0.0
2017-Mar-15 06:32N 58°53' E 005°45'0 0.0
2017-Mar-15 05:32N 58°53' E 005°45'0 0.0
2017-Mar-15 04:32N 58°53' E 005°45'0 0.0
2017-Mar-15 03:32N 58°53' E 005°45'0 0.0
2017-Mar-15 02:32N 58°53' E 005°45'0 0.0
2017-Mar-15 01:32N 58°53' E 005°45'0 0.0
2017-Mar-15 00:32N 58°53' E 005°45'0 0.0
2017-Mar-14 23:32N 58°53' E 005°45'0 0.0
2017-Mar-14 22:32N 58°53' E 005°45'0 0.0
2017-Mar-14 21:32N 58°53' E 005°45'0 0.0
2017-Mar-14 20:32N 58°53' E 005°45'0 0.0
2017-Mar-14 19:32N 58°53' E 005°45'0 0.0
2017-Mar-14 18:32N 58°53' E 005°45'0 0.0
2017-Mar-14 17:32N 58°53' E 005°45'0 0.0
2017-Mar-14 16:32N 58°53' E 005°45'0 0.2
2017-Mar-14 15:34N 58°53' E 005°45'8 8.5
2017-Mar-14 14:34N 59°02' E 005°46'9 8.6
2017-Mar-14 13:33N 59°06' E 005°31'8 8.4
2017-Mar-14 12:33N 59°12' E 005°20'10 9.8
2017-Mar-14 11:33N 59°22' E 005°18'9 9.3
2017-Mar-14 10:33N 59°31' E 005°12'9 8.6
2017-Mar-14 09:33N 59°39' E 005°19'8 8.3
2017-Mar-14 08:33N 59°45' E 005°30'8 8.6
2017-Mar-14 07:33N 59°54' E 005°32'9 9.1
2017-Mar-14 06:34N 60°00' E 005°20'8 8.2
2017-Mar-14 05:33N 60°09' E 005°17'8 8.1
2017-Mar-14 04:33N 60°16' E 005°09'8 7.6
2017-Mar-14 03:33N 60°23' E 005°10'8 8.2
2017-Mar-14 02:33N 60°30' E 004°59'9 8.7
2017-Mar-14 01:33N 60°38' E 004°52'9 9.2
2017-Mar-14 00:33N 60°46' E 004°46'8 8.5
2017-Mar-13 23:33N 60°55' E 004°46'7 7.3
2017-Mar-13 22:33N 61°01' E 004°52'8 8.1
2017-Mar-13 21:33N 61°08' E 005°02'8 8.4
2017-Mar-13 20:33N 61°16' E 004°55'7 6.7
2017-Mar-13 19:33N 61°21' E 005°02'8 8.0
2017-Mar-13 18:33N 61°29' E 004°59'8 7.9
2017-Mar-13 17:33N 61°37' E 004°59'8 8.1
2017-Mar-13 16:32N 61°45' E 005°00'8 8.4
2017-Mar-13 15:34N 61°50' E 005°15'7 7.3
2017-Mar-13 14:33N 61°56' E 005°08'8 8.4
2017-Mar-13 13:33N 62°05' E 005°07'  
Track history (hours):
 
Tides and Currents Weather Stations Pressure Air Temp Water Temp Dewpoint Dewpoint Depression Visibility Wind Speed Wind Dir Waves Ship Positions

Dart

Last reported at 2017-Mar-23 13:32 UTC. Time now 2017-Mar-23 14:17 UTC.
Position N 63°03' E 007°40'.

Length 67 m; draft 4.2 m.

Type: Tanker. MMSI: 219416000.

Date/timePositionNaut miles runAvg speedWind from/ knotsBaromVisibWave heightAir tempDewpointWater temp
2017-Mar-23 13:32N 63°03' E 007°40'0 0.0
2017-Mar-23 12:32N 63°03' E 007°40'0 0.0
2017-Mar-23 11:32N 63°03' E 007°40'4 3.9
2017-Mar-23 10:34N 63°07' E 007°41'8 7.9
2017-Mar-23 09:33N 63°13' E 007°53'9 8.7
2017-Mar-23 08:33N 63°17' E 008°10'9 9.0
2017-Mar-23 07:33N 63°23' E 008°26'9 8.9
2017-Mar-23 06:33N 63°26' E 008°44'8 8.4
2017-Mar-23 05:33N 63°29' E 009°02'8 8.4
2017-Mar-23 04:33N 63°33' E 009°18'9 8.6
2017-Mar-23 03:33N 63°40' E 009°29'9 9.2
2017-Mar-23 02:33N 63°49' E 009°35'9 8.9
2017-Mar-23 01:33N 63°56' E 009°47'8 7.6
2017-Mar-23 00:33N 64°04' E 009°51'7 6.7
2017-Mar-22 23:32N 64°08' E 010°04'8 7.7
2017-Mar-22 22:33N 64°14' E 010°14'7 7.1
2017-Mar-22 21:33N 64°19' E 010°25'8 8.0
2017-Mar-22 20:33N 64°27' E 010°27'7 6.9
2017-Mar-22 19:33N 64°34' E 010°33'8 7.8
2017-Mar-22 18:33N 64°39' E 010°45'9 9.0
2017-Mar-22 17:34N 64°45' E 011°01'10 9.7
2017-Mar-22 16:34N 64°52' E 011°17'9 9.4
2017-Mar-22 15:33N 64°58' E 011°34'9 9.4
2017-Mar-22 14:34N 65°06' E 011°47'10 9.5
2017-Mar-22 13:33N 65°15' E 011°55'8 8.3
2017-Mar-22 12:33N 65°23' E 011°59'9 8.6
2017-Mar-22 11:33N 65°31' E 012°02'9 9.4
2017-Mar-22 10:32N 65°39' E 012°13'9 9.5
2017-Mar-22 09:33N 65°48' E 012°20'9 8.7
2017-Mar-22 08:33N 65°57' E 012°25'9 8.9
2017-Mar-22 07:33N 66°04' E 012°39'9 9.2
2017-Mar-22 06:33N 66°09' E 012°57'1110.8
2017-Mar-22 05:33N 66°14' E 013°20'10 9.8
2017-Mar-22 04:33N 66°15' E 013°45'8 8.2
2017-Mar-22 03:33N 66°18' E 014°03'2 2.4
2017-Mar-22 02:34N 66°20' E 014°08'0 0.0
2017-Mar-22 01:34N 66°20' E 014°08'0 0.0
2017-Mar-22 00:34N 66°20' E 014°08'0 0.0
2017-Mar-21 23:31N 66°20' E 014°08'0 0.0
2017-Mar-21 22:34N 66°20' E 014°08'0 0.0
2017-Mar-21 21:34N 66°20' E 014°08'0 0.0
2017-Mar-21 20:34N 66°20' E 014°08'0 0.0
2017-Mar-21 19:34N 66°20' E 014°08'0 0.0
2017-Mar-21 18:33N 66°20' E 014°08'0 0.0
2017-Mar-21 17:34N 66°20' E 014°08'0 0.0
2017-Mar-21 16:34N 66°20' E 014°08'0 0.0
2017-Mar-21 15:34N 66°20' E 014°08'0 0.0
2017-Mar-21 14:33N 66°20' E 014°08'0 0.0
2017-Mar-21 13:33N 66°20' E 014°08'0 0.0
2017-Mar-21 12:34N 66°20' E 014°08'0 0.0
2017-Mar-21 11:34N 66°20' E 014°08'0 0.0
2017-Mar-21 10:33N 66°20' E 014°08'0 0.0
2017-Mar-21 09:33N 66°20' E 014°08'0 0.0
2017-Mar-21 08:34N 66°20' E 014°08'0 0.0
2017-Mar-21 07:33N 66°20' E 014°08'0 0.0
2017-Mar-21 06:34N 66°20' E 014°08'0 0.0
2017-Mar-21 05:34N 66°20' E 014°08'0 0.0
2017-Mar-21 04:34N 66°20' E 014°08'0 0.0
2017-Mar-21 03:33N 66°20' E 014°08'0 0.0
2017-Mar-21 02:34N 66°20' E 014°08'0 0.0
2017-Mar-21 01:34N 66°20' E 014°08'0 0.0
2017-Mar-21 00:33N 66°20' E 014°08'0 0.0
2017-Mar-20 23:34N 66°20' E 014°08'0 0.0
2017-Mar-20 22:34N 66°20' E 014°08'0 0.0
2017-Mar-20 21:34N 66°20' E 014°08'0 0.0
2017-Mar-20 20:33N 66°20' E 014°08'0 0.0
2017-Mar-20 19:33N 66°20' E 014°08'8 7.9
2017-Mar-20 18:33N 66°15' E 013°51'10 9.5
2017-Mar-20 17:33N 66°14' E 013°28'9 8.6
2017-Mar-20 16:33N 66°11' E 013°08'10 9.7
2017-Mar-20 15:33N 66°07' E 012°46'1110.9
2017-Mar-20 14:33N 65°59' E 012°28'1110.7
2017-Mar-20 13:33N 65°49' E 012°21'1110.8
2017-Mar-20 12:33N 65°38' E 012°13'1010.3
2017-Mar-20 11:33N 65°30' E 011°60'9 8.6
2017-Mar-20 10:33N 65°21' E 012°03'1110.7
2017-Mar-20 09:33N 65°11' E 011°52'1010.5
2017-Mar-20 08:33N 65°02' E 011°42'10 9.8
2017-Mar-20 07:33N 64°55' E 011°25'10 9.7
2017-Mar-20 06:33N 64°49' E 011°08'1010.1
2017-Mar-20 05:33N 64°42' E 010°51'10 9.9
2017-Mar-20 04:33N 64°33' E 010°38'1010.1
2017-Mar-20 03:33N 64°25' E 010°26'9 9.0
2017-Mar-20 02:33N 64°16' E 010°20'1010.0
2017-Mar-20 01:33N 64°08' E 010°06'1010.3
2017-Mar-20 00:33N 64°02' E 009°47'10 9.8
2017-Mar-19 23:33N 63°52' E 009°42'1010.1
2017-Mar-19 22:33N 63°43' E 009°32'1010.0
2017-Mar-19 21:33N 63°34' E 009°22'1110.6
2017-Mar-19 20:33N 63°29' E 009°01'1010.1
2017-Mar-19 19:33N 63°25' E 008°40'1010.3
2017-Mar-19 18:33N 63°20' E 008°20'1010.5
2017-Mar-19 17:33N 63°14' E 008°01'1010.3
2017-Mar-19 16:33N 63°08' E 007°43'3 3.0
2017-Mar-19 15:32N 63°06' E 007°47'0 0.0
2017-Mar-19 14:32N 63°06' E 007°47'0 0.0
2017-Mar-19 13:32N 63°06' E 007°47'0 0.0
2017-Mar-19 12:32N 63°06' E 007°47'0 0.0
2017-Mar-19 11:32N 63°06' E 007°47'1 0.9
2017-Mar-19 10:33N 63°06' E 007°45'3 3.4
2017-Mar-19 09:33N 63°03' E 007°40'0 0.0
2017-Mar-19 08:33N 63°03' E 007°40'0 0.0
2017-Mar-19 07:33N 63°03' E 007°40'0 0.0
2017-Mar-19 06:33N 63°03' E 007°40'3 3.0
2017-Mar-19 05:33N 63°06' E 007°41'7 7.3
2017-Mar-19 04:34N 63°04' E 007°25'8 8.5
2017-Mar-19 03:34N 63°01' E 007°08'9 8.5
2017-Mar-19 02:33N 62°58' E 006°51'9 8.9
2017-Mar-19 01:34N 62°50' E 006°40'9 9.0
2017-Mar-19 00:33N 62°42' E 006°29'9 9.4
2017-Mar-18 23:33N 62°36' E 006°15'9 9.2
2017-Mar-18 22:34N 62°28' E 006°05'8 7.9
2017-Mar-18 21:33N 62°20' E 006°07'10 9.5
2017-Mar-18 20:33N 62°13' E 005°53'9 9.2
2017-Mar-18 19:33N 62°11' E 005°34'8 7.5
2017-Mar-18 18:33N 62°11' E 005°18'8 7.6
2017-Mar-18 17:33N 62°11' E 005°02'10 9.5
2017-Mar-18 16:33N 62°02' E 005°08'9 9.3
2017-Mar-18 15:33N 61°53' E 005°10'6 5.9
2017-Mar-18 14:32N 61°47' E 005°06'9 9.0
2017-Mar-18 13:33N 61°39' E 004°59'4 3.4
2017-Mar-18 12:30N 61°37' E 005°04'0 0.0
2017-Mar-18 11:24N 61°37' E 005°04'0 0.0
2017-Mar-18 10:30N 61°37' E 005°04'1 1.0
2017-Mar-18 09:34N 61°37' E 005°03'8 8.3
2017-Mar-18 08:33N 61°29' E 004°59'1010.1
2017-Mar-18 07:33N 61°19' E 005°04'7 6.9
2017-Mar-18 06:33N 61°13' E 004°59'9 9.1
2017-Mar-18 05:33N 61°04' E 004°59'10 9.7
2017-Mar-18 04:33N 60°56' E 004°45'9 9.3
2017-Mar-18 03:33N 60°47' E 004°46'1010.4
2017-Mar-18 02:33N 60°37' E 004°53'1110.5
2017-Mar-18 01:33N 60°27' E 005°01'1010.1
2017-Mar-18 00:33N 60°19' E 005°12'10 9.8
2017-Mar-17 23:33N 60°10' E 005°16'1110.9
2017-Mar-17 22:33N 59°59' E 005°22'1110.7
2017-Mar-17 21:33N 59°50' E 005°33'1010.5
2017-Mar-17 20:33N 59°41' E 005°24'1110.5
2017-Mar-17 19:33N 59°32' E 005°12'8 8.0
2017-Mar-17 18:31N 59°24' E 005°16'0 0.0
2017-Mar-17 17:31N 59°24' E 005°16'1 0.8
2017-Mar-17 16:33N 59°23' E 005°17'5 4.7
2017-Mar-17 15:33N 59°19' E 005°20'2 1.7
2017-Mar-17 14:32N 59°17' E 005°19'0 0.0
2017-Mar-17 13:32N 59°17' E 005°19'0 0.0
2017-Mar-17 12:32N 59°17' E 005°19'0 0.0
2017-Mar-17 11:32N 59°17' E 005°19'0 0.0
2017-Mar-17 10:32N 59°17' E 005°19'2 1.7
2017-Mar-17 09:33N 59°15' E 005°20'8 7.7
2017-Mar-17 08:33N 59°10' E 005°30'7 7.4
2017-Mar-17 07:33N 59°02' E 005°33'7 6.6
2017-Mar-17 06:32N 58°56' E 005°36'0 0.0
2017-Mar-17 05:32N 58°56' E 005°36'0 0.0
2017-Mar-17 04:32N 58°56' E 005°36'0 0.0
2017-Mar-17 03:33N 58°56' E 005°36'2 1.6
2017-Mar-17 02:33N 58°56' E 005°33'6 6.3
2017-Mar-17 01:33N 59°03' E 005°36'3 3.4
2017-Mar-17 00:33N 58°60' E 005°40'0 0.0
2017-Mar-16 23:33N 58°60' E 005°40'0 0.0
2017-Mar-16 22:33N 58°60' E 005°40'0 0.0
2017-Mar-16 21:33N 58°60' E 005°40'0 0.0
2017-Mar-16 20:33N 58°60' E 005°40'0 0.0
2017-Mar-16 19:33N 58°60' E 005°40'0 0.0
2017-Mar-16 18:33N 58°60' E 005°40'0 0.0
2017-Mar-16 17:32N 58°60' E 005°40'0 0.0
2017-Mar-16 16:32N 58°60' E 005°40'0 0.0
2017-Mar-16 15:32N 58°60' E 005°40'0 0.0
2017-Mar-16 14:32N 58°60' E 005°40'0 0.0
2017-Mar-16 13:32N 58°60' E 005°40'0 0.0
2017-Mar-16 12:32N 58°60' E 005°40'0 0.0
2017-Mar-16 11:32N 58°60' E 005°40'0 0.0
2017-Mar-16 10:32N 58°60' E 005°40'0 0.0
2017-Mar-16 09:32N 58°60' E 005°40'0 0.0
2017-Mar-16 08:32N 58°60' E 005°40'1 1.2
2017-Mar-16 07:33N 59°01' E 005°39'6 5.8
2017-Mar-16 06:33N 58°56' E 005°34'1 0.9
2017-Mar-16 05:31N 58°55' E 005°36'0 0.0
2017-Mar-16 04:31N 58°55' E 005°36'0 0.0
2017-Mar-16 03:28N 58°55' E 005°36'0 0.0
2017-Mar-16 02:31N 58°55' E 005°36'0 0.0
2017-Mar-16 01:31N 58°55' E 005°36'0 0.0
2017-Mar-16 00:31N 58°55' E 005°36'0 0.0
2017-Mar-15 23:31N 58°55' E 005°36'0 0.0
2017-Mar-15 22:31N 58°55' E 005°36'0 0.0
2017-Mar-15 21:31N 58°55' E 005°36'0 0.0
2017-Mar-15 20:31N 58°55' E 005°36'0 0.2
2017-Mar-15 19:34N 58°56' E 005°36'9 8.8
2017-Mar-15 18:33N 59°04' E 005°32'9 8.9
2017-Mar-15 17:33N 59°11' E 005°20'8 7.8
2017-Mar-15 16:33N 59°19' E 005°19'0 0.0
2017-Mar-15 15:33N 59°19' E 005°19'0 0.0
2017-Mar-15 14:33N 59°19' E 005°19'0 0.0
2017-Mar-15 13:33N 59°19' E 005°19'0 0.0
2017-Mar-15 12:33N 59°19' E 005°19'0 0.0
2017-Mar-15 11:33N 59°19' E 005°19'7 7.5
2017-Mar-15 10:33N 59°11' E 005°21'9 8.9
2017-Mar-15 09:33N 59°05' E 005°33'9 8.6
2017-Mar-15 08:33N 59°01' E 005°48'8 7.7
2017-Mar-15 07:33N 58°53' E 005°45'0 0.0
2017-Mar-15 06:32N 58°53' E 005°45'0 0.0
2017-Mar-15 05:32N 58°53' E 005°45'0 0.0
2017-Mar-15 04:32N 58°53' E 005°45'0 0.0
2017-Mar-15 03:32N 58°53' E 005°45'0 0.0
2017-Mar-15 02:32N 58°53' E 005°45'0 0.0
2017-Mar-15 01:32N 58°53' E 005°45'0 0.0
2017-Mar-15 00:32N 58°53' E 005°45'0 0.0
2017-Mar-14 23:32N 58°53' E 005°45'0 0.0
2017-Mar-14 22:32N 58°53' E 005°45'0 0.0
2017-Mar-14 21:32N 58°53' E 005°45'0 0.0
2017-Mar-14 20:32N 58°53' E 005°45'0 0.0
2017-Mar-14 19:32N 58°53' E 005°45'0 0.0
2017-Mar-14 18:32N 58°53' E 005°45'0 0.0
2017-Mar-14 17:32N 58°53' E 005°45'0 0.0
2017-Mar-14 16:32N 58°53' E 005°45'0 0.2
2017-Mar-14 15:34N 58°53' E 005°45'8 8.5
2017-Mar-14 14:34N 59°02' E 005°46'9 8.6
2017-Mar-14 13:33N 59°06' E 005°31'8 8.4
2017-Mar-14 12:33N 59°12' E 005°20'10 9.8
2017-Mar-14 11:33N 59°22' E 005°18'9 9.3
2017-Mar-14 10:33N 59°31' E 005°12'9 8.6
2017-Mar-14 09:33N 59°39' E 005°19'8 8.3
2017-Mar-14 08:33N 59°45' E 005°30'8 8.6
2017-Mar-14 07:33N 59°54' E 005°32'9 9.1
2017-Mar-14 06:34N 60°00' E 005°20'8 8.2
2017-Mar-14 05:33N 60°09' E 005°17'8 8.1
2017-Mar-14 04:33N 60°16' E 005°09'8 7.6
2017-Mar-14 03:33N 60°23' E 005°10'8 8.2
2017-Mar-14 02:33N 60°30' E 004°59'9 8.7
2017-Mar-14 01:33N 60°38' E 004°52'9 9.2
2017-Mar-14 00:33N 60°46' E 004°46'8 8.5
2017-Mar-13 23:33N 60°55' E 004°46'7 7.3
2017-Mar-13 22:33N 61°01' E 004°52'8 8.1
2017-Mar-13 21:33N 61°08' E 005°02'8 8.4
2017-Mar-13 20:33N 61°16' E 004°55'7 6.7
2017-Mar-13 19:33N 61°21' E 005°02'8 8.0
2017-Mar-13 18:33N 61°29' E 004°59'8 7.9
2017-Mar-13 17:33N 61°37' E 004°59'8 8.1
2017-Mar-13 16:32N 61°45' E 005°00'8 8.4
2017-Mar-13 15:34N 61°50' E 005°15'7 7.3
2017-Mar-13 14:33N 61°56' E 005°08'8 8.4
2017-Mar-13 13:33N 62°05' E 005°07'  

Dump ship's entire track history